createdAt,value
2018-04-07T00:00:53.596Z,4.50
2018-04-07T00:03:20.007Z,4.40
2018-04-07T00:05:47.131Z,4.40
2018-04-07T00:08:13.538Z,4.40
2018-04-07T00:10:39.941Z,4.40
2018-04-07T00:13:06.316Z,4.30
2018-04-07T00:15:32.723Z,4.30
2018-04-07T00:17:59.130Z,4.10
2018-04-07T00:20:26.318Z,4.10
2018-04-07T00:22:52.741Z,4.10
2018-04-07T00:25:19.159Z,4.30
2018-04-07T00:27:45.526Z,4.20
2018-04-07T00:30:11.981Z,4.10
2018-04-07T00:32:38.371Z,4.10
2018-04-07T00:35:11.818Z,4.10
2018-04-07T00:37:39.153Z,4.00
2018-04-07T00:40:05.606Z,4.00
2018-04-07T00:42:32.026Z,4.00
2018-04-07T00:44:58.430Z,4.00
2018-04-07T00:47:24.848Z,4.00
2018-04-07T00:49:51.987Z,4.00
2018-04-07T00:52:19.182Z,3.90
2018-04-07T00:54:45.558Z,3.90
2018-04-07T00:57:12.033Z,3.90
2018-04-07T00:59:38.430Z,3.90
2018-04-07T01:02:04.816Z,3.90
2018-04-07T01:04:31.198Z,4.00
2018-04-07T01:06:57.606Z,4.10
2018-04-07T01:09:23.998Z,4.00
2018-04-07T01:11:50.395Z,4.00
2018-04-07T01:14:16.771Z,4.00
2018-04-07T01:16:43.167Z,4.00
2018-04-07T01:19:09.562Z,4.00
2018-04-07T01:21:35.966Z,3.90
2018-04-07T01:24:02.352Z,3.90
2018-04-07T01:26:28.746Z,3.70
2018-04-07T01:28:55.138Z,3.70
2018-04-07T01:31:21.523Z,3.70
2018-04-07T01:33:47.946Z,3.70
2018-04-07T01:36:14.346Z,3.80
2018-04-07T01:38:41.511Z,3.60
2018-04-07T01:41:08.700Z,3.60
2018-04-07T01:43:35.118Z,3.50
2018-04-07T01:46:01.490Z,3.60
2018-04-07T01:48:27.909Z,3.60
2018-04-07T01:50:54.303Z,3.60
2018-04-07T01:53:21.449Z,3.50
2018-04-07T01:55:48.592Z,3.50
2018-04-07T01:58:15.703Z,3.40
2018-04-07T02:00:42.093Z,3.30
2018-04-07T02:03:08.511Z,3.40
2018-04-07T02:05:35.687Z,3.40
2018-04-07T02:08:02.086Z,3.30
2018-04-07T02:10:29.222Z,3.40
2018-04-07T02:12:55.628Z,3.40
2018-04-07T02:15:22.020Z,3.50
2018-04-07T02:17:48.992Z,3.40
2018-04-07T02:20:15.183Z,3.30
2018-04-07T02:22:41.413Z,3.50
2018-04-07T02:25:07.779Z,3.50
2018-04-07T02:27:34.170Z,3.30
2018-04-07T02:30:00.548Z,3.30
2018-04-07T02:32:27.701Z,3.10
2018-04-07T02:34:54.094Z,3.10
2018-04-07T02:37:20.510Z,3.10
2018-04-07T02:39:46.882Z,3.10
2018-04-07T02:42:14.012Z,3.00
2018-04-07T02:44:40.380Z,2.90
2018-04-07T02:47:06.777Z,2.80
2018-04-07T02:49:33.901Z,2.80
2018-04-07T02:52:00.330Z,2.70
2018-04-07T02:54:26.707Z,2.70
2018-04-07T02:56:53.856Z,2.60
2018-04-07T02:59:21.054Z,2.50
2018-04-07T03:01:47.423Z,2.50
2018-04-07T03:04:13.827Z,2.50
2018-04-07T03:06:40.210Z,2.40
2018-04-07T03:09:07.361Z,2.30
2018-04-07T03:11:34.488Z,2.30
2018-04-07T03:14:00.887Z,2.30
2018-04-07T03:16:27.259Z,2.30
2018-04-07T03:18:53.664Z,2.30
2018-04-07T03:21:20.061Z,2.10
2018-04-07T03:23:47.182Z,1.80
2018-04-07T03:26:13.575Z,1.80
2018-04-07T03:28:40.820Z,1.90
2018-04-07T03:31:07.228Z,1.80
2018-04-07T03:33:34.350Z,1.70
2018-04-07T03:36:00.756Z,1.60
2018-04-07T03:38:27.153Z,1.70
2018-04-07T03:40:54.288Z,1.70
2018-04-07T03:43:21.398Z,1.80
2018-04-07T03:45:47.835Z,1.80
2018-04-07T03:48:14.253Z,1.80
2018-04-07T03:50:40.694Z,1.70
2018-04-07T03:53:07.072Z,1.80
2018-04-07T03:55:34.231Z,1.70
2018-04-07T03:58:01.375Z,1.80
2018-04-07T04:00:27.790Z,1.70
2018-04-07T04:02:54.185Z,1.80
2018-04-07T04:05:20.603Z,1.80
2018-04-07T04:07:47.026Z,1.80
2018-04-07T04:10:14.146Z,1.80
2018-04-07T04:12:40.538Z,1.70
2018-04-07T04:15:06.966Z,1.80
2018-04-07T04:17:33.398Z,1.80
2018-04-07T04:19:59.769Z,1.80
2018-04-07T04:22:26.149Z,1.90
2018-04-07T04:24:53.290Z,1.80
2018-04-07T04:27:20.405Z,1.80
2018-04-07T04:29:46.803Z,1.70
2018-04-07T04:32:13.202Z,1.70
2018-04-07T04:34:39.608Z,1.80
2018-04-07T04:37:06.003Z,1.70
2018-04-07T04:39:32.444Z,1.70
2018-04-07T04:41:58.853Z,1.80
2018-04-07T04:44:25.991Z,1.90
2018-04-07T04:46:52.371Z,1.90
2018-04-07T04:49:18.770Z,1.90
2018-04-07T04:51:45.902Z,1.90
2018-04-07T04:54:12.285Z,1.80
2018-04-07T04:56:38.671Z,1.90
2018-04-07T04:59:05.044Z,2.10
2018-04-07T05:01:31.533Z,2.10
2018-04-07T05:03:57.916Z,2.20
2018-04-07T05:06:24.311Z,2.10
2018-04-07T05:08:50.728Z,2.30
2018-04-07T05:11:17.134Z,2.80
2018-04-07T05:13:43.542Z,3.10
2018-04-07T05:16:09.964Z,3.20
2018-04-07T05:18:37.143Z,3.30
2018-04-07T05:21:03.519Z,3.30
2018-04-07T05:23:29.918Z,3.30
2018-04-07T05:25:56.284Z,3.20
2018-04-07T05:28:22.690Z,3.10
2018-04-07T05:30:49.073Z,3.10
2018-04-07T05:33:16.210Z,3.30
2018-04-07T05:35:43.327Z,3.40
2018-04-07T05:38:09.809Z,3.30
2018-04-07T05:40:36.934Z,3.70
2018-04-07T05:43:03.357Z,3.60
2018-04-07T05:45:29.731Z,3.80
2018-04-07T05:47:56.883Z,3.90
2018-04-07T05:50:24.018Z,4.00
2018-04-07T05:52:50.391Z,3.90
2018-04-07T05:55:16.788Z,4.00
2018-04-07T05:57:43.162Z,4.10
2018-04-07T06:00:09.572Z,4.20
2018-04-07T06:02:36.682Z,4.40
2018-04-07T06:05:03.094Z,4.30
2018-04-07T06:07:29.490Z,4.50
2018-04-07T06:09:56.611Z,4.70
2018-04-07T06:12:23.020Z,4.60
2018-04-07T06:14:49.398Z,4.80
2018-04-07T06:17:15.793Z,4.90
2018-04-07T06:19:42.195Z,4.90
2018-04-07T06:22:08.602Z,5.10
2018-04-07T06:24:34.984Z,5.20
2018-04-07T06:27:01.383Z,5.20
2018-04-07T06:29:28.518Z,5.40
2018-04-07T06:31:54.886Z,5.30
2018-04-07T06:34:21.328Z,5.50
2018-04-07T06:36:47.696Z,5.60
2018-04-07T06:39:14.114Z,5.80
2018-04-07T06:41:40.481Z,5.90
2018-04-07T06:44:06.885Z,6.00
2018-04-07T06:46:33.312Z,6.00
2018-04-07T06:49:00.182Z,6.10
2018-04-07T06:51:26.567Z,6.20
2018-04-07T06:53:52.966Z,6.30
2018-04-07T06:56:19.366Z,6.50
2018-04-07T06:58:45.770Z,6.70
2018-04-07T07:01:12.163Z,6.80
2018-04-07T07:03:38.570Z,7.00
2018-04-07T07:06:05.004Z,7.20
2018-04-07T07:08:31.426Z,7.30
2018-04-07T07:10:57.886Z,7.40
2018-04-07T07:13:24.282Z,7.50
2018-04-07T07:15:50.701Z,7.50
2018-04-07T07:18:18.116Z,7.40
2018-04-07T07:20:44.678Z,7.60
2018-04-07T07:23:11.796Z,7.70
2018-04-07T07:25:38.305Z,7.70
2018-04-07T07:28:04.687Z,7.70
2018-04-07T07:30:31.086Z,7.80
2018-04-07T07:32:57.494Z,7.90
2018-04-07T07:35:23.951Z,7.90
2018-04-07T07:37:50.384Z,8.10
2018-04-07T07:40:16.775Z,8.30
2018-04-07T07:42:43.927Z,8.50
2018-04-07T07:45:11.066Z,8.70
2018-04-07T07:47:37.480Z,8.60
2018-04-07T07:50:03.893Z,8.80
2018-04-07T07:52:30.295Z,8.90
2018-04-07T07:54:56.666Z,9.00
2018-04-07T07:57:23.088Z,9.10
2018-04-07T07:59:49.479Z,9.10
2018-04-07T08:02:16.636Z,9.30
2018-04-07T08:04:43.081Z,9.20
2018-04-07T08:07:09.499Z,9.20
2018-04-07T08:09:36.624Z,9.50
2018-04-07T08:12:03.047Z,9.40
2018-04-07T08:14:29.421Z,9.70
2018-04-07T08:16:56.534Z,10.00
2018-04-07T08:19:22.926Z,9.90
2018-04-07T08:21:49.302Z,10.00
2018-04-07T08:24:15.711Z,10.10
2018-04-07T08:26:42.107Z,10.00
2018-04-07T08:29:09.246Z,10.20
2018-04-07T08:31:35.669Z,10.10
2018-04-07T08:34:02.070Z,10.30
2018-04-07T08:36:28.438Z,10.50
2018-04-07T08:38:54.890Z,10.60
2018-04-07T08:41:22.030Z,10.60
2018-04-07T08:43:48.403Z,10.60
2018-04-07T08:46:14.798Z,10.60
2018-04-07T08:48:41.213Z,10.80
2018-04-07T08:51:07.626Z,10.90
2018-04-07T08:53:34.058Z,11.10
2018-04-07T08:56:00.482Z,11.20
2018-04-07T08:58:26.861Z,11.30
2018-04-07T09:00:53.251Z,11.50
2018-04-07T09:03:19.662Z,11.70
2018-04-07T09:05:46.789Z,11.80
2018-04-07T09:08:13.175Z,11.80
2018-04-07T09:10:39.574Z,11.80
2018-04-07T09:13:06.683Z,12.00
2018-04-07T09:15:33.085Z,12.00
2018-04-07T09:17:59.479Z,12.10
2018-04-07T09:20:26.598Z,12.30
2018-04-07T09:22:53.000Z,12.20
2018-04-07T09:25:19.379Z,12.30
2018-04-07T09:27:46.542Z,12.70
2018-04-07T09:30:12.921Z,12.60
2018-04-07T09:32:39.313Z,12.50
2018-04-07T09:35:05.715Z,12.50
2018-04-07T09:37:32.118Z,12.60
2018-04-07T09:39:58.573Z,12.60
2018-04-07T09:42:25.030Z,12.40
2018-04-07T09:44:51.497Z,12.70
2018-04-07T09:47:18.642Z,12.90
2018-04-07T09:49:45.803Z,12.90
2018-04-07T09:52:12.999Z,13.10
2018-04-07T09:54:39.434Z,13.10
2018-04-07T09:57:05.805Z,13.40
2018-04-07T09:59:32.230Z,13.20
2018-04-07T10:01:58.658Z,13.00
2018-04-07T10:04:25.090Z,13.10
2018-04-07T10:06:51.495Z,13.30
2018-04-07T10:09:17.917Z,13.30
2018-04-07T10:11:44.359Z,13.40
2018-04-07T10:14:10.742Z,13.60
2018-04-07T10:16:37.166Z,13.60
2018-04-07T10:19:03.654Z,13.80
2018-04-07T10:21:30.100Z,14.00
2018-04-07T10:23:56.351Z,14.10
2018-04-07T10:26:22.639Z,14.00
2018-04-07T10:28:49.632Z,14.20
2018-04-07T10:31:15.859Z,14.20
2018-04-07T10:33:42.125Z,14.30
2018-04-07T10:36:08.343Z,14.40
2018-04-07T10:38:34.607Z,14.40
2018-04-07T10:41:01.543Z,14.40
2018-04-07T10:43:28.525Z,14.40
2018-04-07T10:45:54.728Z,14.40
2018-04-07T10:48:21.686Z,14.80
2018-04-07T10:50:47.911Z,14.70
2018-04-07T10:53:14.854Z,14.70
2018-04-07T10:55:41.860Z,14.80
2018-04-07T10:58:08.068Z,14.70
2018-04-07T11:00:34.301Z,15.10
2018-04-07T11:03:00.526Z,15.20
2018-04-07T11:05:26.747Z,15.10
2018-04-07T11:07:52.949Z,15.30
2018-04-07T11:10:19.908Z,15.30
2018-04-07T11:12:46.104Z,15.30
2018-04-07T11:15:12.325Z,15.30
2018-04-07T11:17:38.553Z,15.50
2018-04-07T11:20:04.759Z,15.60
2018-04-07T11:22:30.982Z,15.60
2018-04-07T11:24:57.219Z,15.60
2018-04-07T11:27:23.468Z,15.80
2018-04-07T11:29:49.674Z,15.70
2018-04-07T11:32:15.891Z,15.80
2018-04-07T11:34:42.088Z,15.80
2018-04-07T11:37:09.053Z,15.90
2018-04-07T11:39:35.305Z,15.80
2018-04-07T11:42:01.513Z,15.90
2018-04-07T11:44:27.755Z,16.10
2018-04-07T11:46:53.954Z,16.20
2018-04-07T11:49:20.923Z,16.10
2018-04-07T11:51:47.137Z,16.00
2018-04-07T11:54:14.104Z,16.20
2018-04-07T11:56:40.308Z,16.10
2018-04-07T11:59:07.269Z,16.50
2018-04-07T12:01:33.472Z,16.40
2018-04-07T12:03:59.706Z,16.40
2018-04-07T12:06:25.929Z,16.50
2018-04-07T12:08:52.132Z,16.60
2018-04-07T12:11:18.356Z,16.60
2018-04-07T12:13:44.569Z,16.60
2018-04-07T12:16:10.832Z,16.50
2018-04-07T12:18:39.260Z,16.60
2018-04-07T12:21:05.660Z,16.60
2018-04-07T12:23:32.205Z,16.70
2018-04-07T12:25:59.192Z,16.70
2018-04-07T12:28:25.443Z,16.70
2018-04-07T12:30:53.206Z,16.70
2018-04-07T12:33:20.325Z,16.90
2018-04-07T12:35:46.721Z,16.90
2018-04-07T12:38:13.742Z,16.90
2018-04-07T12:40:39.961Z,16.90
2018-04-07T12:43:06.191Z,17.00
2018-04-07T12:45:32.448Z,17.10
2018-04-07T12:47:58.668Z,17.20
2018-04-07T12:50:26.366Z,17.10
2018-04-07T12:52:52.674Z,17.20
2018-04-07T12:55:18.913Z,17.20
2018-04-07T12:57:45.137Z,17.30
2018-04-07T13:00:11.362Z,17.50
2018-04-07T13:02:37.798Z,17.60
2018-04-07T13:05:04.396Z,17.70
2018-04-07T13:07:30.831Z,17.80
2018-04-07T13:09:57.218Z,17.80
2018-04-07T13:12:23.610Z,17.70
2018-04-07T13:14:50.003Z,17.80
2018-04-07T13:17:17.177Z,17.90
2018-04-07T13:19:43.613Z,17.90
2018-04-07T13:22:10.051Z,17.90
2018-04-07T13:24:36.455Z,18.00
2018-04-07T13:27:03.602Z,18.00
2018-04-07T13:29:30.742Z,18.00
2018-04-07T13:31:57.118Z,18.00
2018-04-07T13:34:23.519Z,18.20
2018-04-07T13:36:50.638Z,18.10
2018-04-07T13:39:17.065Z,18.10
2018-04-07T13:41:43.463Z,18.30
2018-04-07T13:44:09.855Z,18.30
2018-04-07T13:46:36.090Z,18.40
2018-04-07T13:49:02.355Z,18.50
2018-04-07T13:51:29.300Z,18.60
2018-04-07T13:53:56.263Z,18.60
2018-04-07T13:56:22.465Z,18.50
2018-04-07T13:58:49.429Z,18.60
2018-04-07T14:01:15.682Z,18.50
2018-04-07T14:03:41.928Z,18.60
2018-04-07T14:06:08.129Z,18.60
2018-04-07T14:08:34.360Z,18.70
2018-04-07T14:11:00.595Z,18.70
2018-04-07T14:13:26.826Z,18.80
2018-04-07T14:15:53.067Z,18.70
2018-04-07T14:18:19.263Z,18.70
2018-04-07T14:20:46.253Z,18.70
2018-04-07T14:23:12.461Z,18.70
2018-04-07T14:25:38.718Z,18.70
2018-04-07T14:28:04.937Z,18.70
2018-04-07T14:30:31.167Z,18.70
2018-04-07T14:32:57.364Z,18.60
2018-04-07T14:35:24.328Z,18.60
2018-04-07T14:37:50.599Z,18.50
2018-04-07T14:40:16.798Z,18.60
2018-04-07T14:42:43.036Z,18.60
2018-04-07T14:45:09.245Z,18.60
2018-04-07T14:47:35.492Z,18.60
2018-04-07T14:50:01.704Z,18.60
2018-04-07T14:52:27.956Z,18.60
2018-04-07T14:54:54.217Z,18.40
2018-04-07T14:57:20.429Z,18.50
2018-04-07T14:59:46.666Z,18.60
2018-04-07T15:02:12.868Z,18.60
2018-04-07T15:04:39.099Z,18.60
2018-04-07T15:07:05.304Z,18.50
2018-04-07T15:09:31.534Z,18.50
2018-04-07T15:11:57.895Z,18.50
2018-04-07T15:14:24.208Z,18.40
2018-04-07T15:16:50.725Z,18.40
2018-04-07T15:19:16.959Z,18.40
2018-04-07T15:21:43.924Z,18.30
2018-04-07T15:24:10.154Z,18.30
2018-04-07T15:26:36.399Z,18.20
2018-04-07T15:29:02.613Z,18.20
2018-04-07T15:31:28.848Z,18.20
2018-04-07T15:33:55.062Z,18.20
2018-04-07T15:36:21.289Z,18.20
2018-04-07T15:38:47.548Z,18.20
2018-04-07T15:41:13.757Z,18.20
2018-04-07T15:43:40.001Z,18.20
2018-04-07T15:46:06.209Z,18.30
2018-04-07T15:48:32.450Z,18.30
2018-04-07T15:50:58.649Z,18.20
2018-04-07T15:53:25.630Z,18.10
2018-04-07T15:55:51.848Z,18.10
2018-04-07T15:58:18.044Z,18.10
2018-04-07T16:00:44.264Z,18.00
2018-04-07T16:03:10.475Z,18.00
2018-04-07T16:05:36.754Z,18.10
2018-04-07T16:08:03.742Z,18.00
2018-04-07T16:10:30.005Z,18.00
2018-04-07T16:12:56.231Z,17.90
2018-04-07T16:15:22.443Z,17.90
2018-04-07T16:17:48.667Z,17.90
2018-04-07T16:20:14.883Z,17.80
2018-04-07T16:22:41.116Z,17.70
2018-04-07T16:25:07.356Z,17.70
2018-04-07T16:27:33.587Z,17.60
2018-04-07T16:29:59.826Z,17.60
2018-04-07T16:32:26.092Z,17.50
2018-04-07T16:34:53.096Z,17.60
2018-04-07T16:37:19.363Z,17.50
2018-04-07T16:39:45.636Z,17.50
2018-04-07T16:42:11.878Z,17.30
2018-04-07T16:44:38.124Z,17.40
2018-04-07T16:47:04.343Z,17.30
2018-04-07T16:49:30.568Z,17.20
2018-04-07T16:51:56.810Z,17.10
2018-04-07T16:54:23.029Z,17.00
2018-04-07T16:56:49.250Z,16.90
2018-04-07T16:59:15.444Z,16.80
2018-04-07T17:01:42.412Z,16.70
2018-04-07T17:04:08.603Z,16.60
2018-04-07T17:06:34.812Z,16.70
2018-04-07T17:09:01.060Z,16.60
2018-04-07T17:11:27.355Z,16.50
2018-04-07T17:13:53.689Z,16.40
2018-04-07T17:16:19.918Z,16.40
2018-04-07T17:18:46.163Z,16.30
2018-04-07T17:21:12.399Z,16.20
2018-04-07T17:23:38.664Z,16.90
2018-04-07T17:26:05.638Z,17.60
2018-04-07T17:28:31.865Z,17.50
2018-04-07T17:30:58.085Z,17.70
2018-04-07T17:33:25.032Z,17.40
2018-04-07T17:35:51.285Z,17.30
2018-04-07T17:38:17.532Z,17.20
2018-04-07T17:40:43.776Z,16.90
2018-04-07T17:43:10.037Z,16.50
2018-04-07T17:45:36.271Z,16.00
2018-04-07T17:48:02.580Z,15.30
2018-04-07T17:50:28.837Z,14.80
2018-04-07T17:52:55.828Z,13.90
2018-04-07T17:55:22.075Z,13.80
2018-04-07T17:57:48.526Z,13.50
2018-04-07T18:00:14.963Z,13.10
2018-04-07T18:02:42.100Z,12.60
2018-04-07T18:05:08.556Z,12.50
2018-04-07T18:07:35.706Z,12.30
2018-04-07T18:10:02.931Z,12.20
2018-04-07T18:12:29.349Z,12.10
2018-04-07T18:14:55.586Z,11.90
2018-04-07T18:17:21.780Z,11.90
2018-04-07T18:19:48.747Z,11.80
2018-04-07T18:22:15.003Z,11.70
2018-04-07T18:24:41.348Z,11.60
2018-04-07T18:27:07.594Z,11.50
2018-04-07T18:29:33.821Z,11.50
2018-04-07T18:32:00.077Z,11.40
2018-04-07T18:34:27.032Z,11.30
2018-04-07T18:36:54.042Z,11.20
2018-04-07T18:39:20.270Z,11.20
2018-04-07T18:41:46.516Z,11.00
2018-04-07T18:44:12.734Z,11.00
2018-04-07T18:46:38.937Z,11.00
2018-04-07T18:49:05.177Z,11.10
2018-04-07T18:51:31.488Z,10.80
2018-04-07T18:53:57.710Z,10.60
2018-04-07T18:56:23.963Z,10.60
2018-04-07T18:58:50.228Z,10.90
2018-04-07T19:01:17.252Z,11.10
2018-04-07T19:03:44.245Z,11.20
2018-04-07T19:06:11.253Z,11.20
2018-04-07T19:08:37.496Z,11.10
2018-04-07T19:11:04.552Z,11.10
2018-04-07T19:13:30.787Z,11.00
2018-04-07T19:15:57.759Z,10.70
2018-04-07T19:18:24.001Z,10.70
2018-04-07T19:20:50.249Z,10.50
2018-04-07T19:23:16.501Z,10.40
2018-04-07T19:25:42.788Z,10.30
2018-04-07T19:28:10.606Z,10.30
2018-04-07T19:30:41.267Z,10.50
2018-04-07T19:33:10.746Z,10.40
2018-04-07T19:35:39.012Z,10.60
2018-04-07T19:38:07.425Z,10.70
2018-04-07T19:40:34.427Z,10.90
2018-04-07T19:43:00.696Z,10.80
2018-04-07T19:45:26.926Z,11.00
2018-04-07T19:47:53.142Z,10.90
2018-04-07T19:50:20.141Z,10.80
2018-04-07T19:52:46.352Z,10.70
2018-04-07T19:55:13.361Z,10.90
2018-04-07T19:57:39.579Z,10.80
2018-04-07T20:00:05.839Z,10.80
2018-04-07T20:02:32.044Z,10.80
2018-04-07T20:04:58.265Z,10.70
2018-04-07T20:07:24.514Z,10.60
2018-04-07T20:09:50.768Z,10.70
2018-04-07T20:12:17.034Z,11.10
2018-04-07T20:14:43.275Z,11.20
2018-04-07T20:17:09.551Z,11.30
2018-04-07T20:19:35.787Z,11.40
2018-04-07T20:22:02.797Z,11.40
2018-04-07T20:24:29.030Z,11.30
2018-04-07T20:26:55.342Z,11.40
2018-04-07T20:29:21.593Z,11.30
2018-04-07T20:31:47.827Z,11.30
2018-04-07T20:34:14.045Z,11.40
2018-04-07T20:36:40.246Z,11.20
2018-04-07T20:39:06.490Z,11.10
2018-04-07T20:41:32.737Z,11.00
2018-04-07T20:43:59.026Z,10.90
2018-04-07T20:46:26.041Z,10.70
2018-04-07T20:48:52.267Z,10.70
2018-04-07T20:51:18.493Z,10.60
2018-04-07T20:53:44.708Z,10.70
2018-04-07T20:56:10.954Z,10.50
2018-04-07T20:58:37.165Z,10.40
2018-04-07T21:01:03.603Z,10.40
2018-04-07T21:03:29.984Z,10.30
2018-04-07T21:05:57.207Z,10.40
2018-04-07T21:08:23.643Z,10.40
2018-04-07T21:10:50.074Z,10.50
2018-04-07T21:13:16.491Z,10.50
2018-04-07T21:15:42.883Z,10.40
2018-04-07T21:18:10.022Z,10.40
2018-04-07T21:20:37.144Z,10.40
2018-04-07T21:23:03.551Z,10.40
2018-04-07T21:25:36.939Z,10.40
2018-04-07T21:28:03.356Z,10.20
2018-04-07T21:30:29.763Z,10.10
2018-04-07T21:32:56.151Z,10.10
2018-04-07T21:35:22.602Z,10.00
2018-04-07T21:37:49.019Z,10.00
2018-04-07T21:40:15.486Z,10.10
2018-04-07T21:42:41.883Z,10.00
2018-04-07T21:45:08.294Z,10.00
2018-04-07T21:47:35.453Z,9.80
2018-04-07T21:50:01.869Z,9.70
2018-04-07T21:52:29.074Z,9.60
2018-04-07T21:54:55.442Z,9.50
2018-04-07T21:57:21.853Z,9.50
2018-04-07T21:59:48.263Z,9.40
2018-04-07T22:02:14.690Z,9.30
2018-04-07T22:04:41.138Z,9.30
2018-04-07T22:07:07.531Z,9.20
2018-04-07T22:09:33.926Z,9.00
2018-04-07T22:12:00.374Z,9.10
2018-04-07T22:14:26.779Z,9.00
2018-04-07T22:16:53.214Z,9.00
2018-04-07T22:19:19.686Z,8.90
2018-04-07T22:21:46.102Z,8.80
2018-04-07T22:24:12.499Z,8.60
2018-04-07T22:26:38.930Z,8.40
2018-04-07T22:29:05.308Z,8.40
2018-04-07T22:31:31.772Z,8.30
2018-04-07T22:33:58.887Z,8.10
2018-04-07T22:36:25.315Z,8.10
2018-04-07T22:38:51.770Z,8.00
2018-04-07T22:41:18.209Z,7.90
2018-04-07T22:43:44.584Z,7.90
2018-04-07T22:46:11.038Z,8.00
2018-04-07T22:48:37.453Z,8.00
2018-04-07T22:51:03.838Z,8.10
2018-04-07T22:53:30.238Z,8.00
2018-04-07T22:55:56.628Z,8.00
2018-04-07T22:58:23.807Z,7.90
2018-04-07T23:00:50.193Z,7.80
2018-04-07T23:03:16.590Z,7.60
2018-04-07T23:05:43.013Z,7.40
2018-04-07T23:08:09.431Z,7.30
2018-04-07T23:10:35.896Z,7.30
2018-04-07T23:13:02.329Z,7.30
2018-04-07T23:15:28.749Z,7.20
2018-04-07T23:17:55.143Z,7.20
2018-04-07T23:20:21.582Z,7.10
2018-04-07T23:22:47.999Z,7.10
2018-04-07T23:25:14.394Z,7.10
2018-04-07T23:27:40.810Z,7.00
2018-04-07T23:30:07.192Z,7.10
2018-04-07T23:32:33.605Z,7.30
2018-04-07T23:34:59.982Z,7.20
2018-04-07T23:37:26.421Z,7.10
2018-04-07T23:39:53.589Z,7.00
2018-04-07T23:42:20.023Z,6.90
2018-04-07T23:44:47.173Z,6.90
2018-04-07T23:47:14.289Z,6.90
2018-04-07T23:49:40.693Z,6.80
2018-04-07T23:52:07.058Z,6.80
2018-04-07T23:54:33.472Z,6.80
2018-04-07T23:56:59.875Z,6.90
2018-04-07T23:59:26.278Z,6.90
